sensor_id;sensor_type;location;lat;lon;timestamp;P1;durP1;ratioP1;P2;durP2;ratioP2
23868;SDS011;12115;47.128;15.422;2022-10-16T00:01:26;37.92;;;27.67;;
23868;SDS011;12115;47.128;15.422;2022-10-16T00:03:56;38.60;;;29.05;;
23868;SDS011;12115;47.128;15.422;2022-10-16T00:06:25;40.08;;;28.17;;
23868;SDS011;12115;47.128;15.422;2022-10-16T00:08:53;42.13;;;31.65;;
23868;SDS011;12115;47.128;15.422;2022-10-16T00:11:21;39.47;;;28.95;;
23868;SDS011;12115;47.128;15.422;2022-10-16T00:13:51;35.15;;;26.80;;
23868;SDS011;12115;47.128;15.422;2022-10-16T00:16:21;37.60;;;28.40;;
23868;SDS011;12115;47.128;15.422;2022-10-16T00:18:48;37.22;;;28.58;;
23868;SDS011;12115;47.128;15.422;2022-10-16T00:21:16;36.03;;;26.35;;
23868;SDS011;12115;47.128;15.422;2022-10-16T00:23:45;34.72;;;27.85;;
23868;SDS011;12115;47.128;15.422;2022-10-16T00:26:14;36.72;;;25.92;;
23868;SDS011;12115;47.128;15.422;2022-10-16T00:28:47;35.47;;;25.73;;
23868;SDS011;12115;47.128;15.422;2022-10-16T00:31:15;40.97;;;29.80;;
23868;SDS011;12115;47.128;15.422;2022-10-16T00:33:44;37.10;;;26.13;;
23868;SDS011;12115;47.128;15.422;2022-10-16T00:36:12;32.10;;;24.48;;
23868;SDS011;12115;47.128;15.422;2022-10-16T00:38:41;35.38;;;26.05;;
23868;SDS011;12115;47.128;15.422;2022-10-16T00:41:13;35.67;;;24.95;;
23868;SDS011;12115;47.128;15.422;2022-10-16T00:46:20;41.60;;;27.75;;
23868;SDS011;12115;47.128;15.422;2022-10-16T00:49:09;30.35;;;23.45;;
23868;SDS011;12115;47.128;15.422;2022-10-16T00:51:41;40.17;;;26.55;;
23868;SDS011;12115;47.128;15.422;2022-10-16T00:54:11;34.28;;;25.98;;
23868;SDS011;12115;47.128;15.422;2022-10-16T00:56:50;29.38;;;22.95;;
23868;SDS011;12115;47.128;15.422;2022-10-16T00:59:20;31.17;;;22.75;;
23868;SDS011;12115;47.128;15.422;2022-10-16T01:01:52;30.48;;;23.80;;
23868;SDS011;12115;47.128;15.422;2022-10-16T01:04:20;39.17;;;25.35;;
23868;SDS011;12115;47.128;15.422;2022-10-16T01:13:18;29.63;;;22.73;;
23868;SDS011;12115;47.128;15.422;2022-10-16T01:21:04;29.60;;;22.80;;
23868;SDS011;12115;47.128;15.422;2022-10-16T01:23:51;32.67;;;21.35;;
23868;SDS011;12115;47.128;15.422;2022-10-16T01:26:28;26.40;;;21.38;;
23868;SDS011;12115;47.128;15.422;2022-10-16T01:31:29;32.97;;;22.63;;
23868;SDS011;12115;47.128;15.422;2022-10-16T01:34:00;32.17;;;23.15;;
23868;SDS011;12115;47.128;15.422;2022-10-16T01:36:37;39.95;;;23.48;;
23868;SDS011;12115;47.128;15.422;2022-10-16T01:39:09;27.85;;;22.77;;
23868;SDS011;12115;47.128;15.422;2022-10-16T01:41:39;28.00;;;21.75;;
23868;SDS011;12115;47.128;15.422;2022-10-16T01:44:10;28.25;;;21.80;;
23868;SDS011;12115;47.128;15.422;2022-10-16T01:46:45;28.55;;;23.75;;
23868;SDS011;12115;47.128;15.422;2022-10-16T01:49:13;33.33;;;22.92;;
23868;SDS011;12115;47.128;15.422;2022-10-16T01:51:43;36.25;;;25.33;;
23868;SDS011;12115;47.128;15.422;2022-10-16T01:54:13;32.97;;;21.55;;
23868;SDS011;12115;47.128;15.422;2022-10-16T01:56:44;33.47;;;21.52;;
23868;SDS011;12115;47.128;15.422;2022-10-16T01:59:14;28.13;;;20.48;;
23868;SDS011;12115;47.128;15.422;2022-10-16T02:01:48;33.55;;;21.45;;
23868;SDS011;12115;47.128;15.422;2022-10-16T02:04:21;31.23;;;21.80;;
23868;SDS011;12115;47.128;15.422;2022-10-16T02:06:54;32.88;;;20.08;;
23868;SDS011;12115;47.128;15.422;2022-10-16T02:09:21;33.30;;;21.52;;
23868;SDS011;12115;47.128;15.422;2022-10-16T02:11:48;28.05;;;19.98;;
23868;SDS011;12115;47.128;15.422;2022-10-16T02:14:20;36.92;;;21.23;;
23868;SDS011;12115;47.128;15.422;2022-10-16T02:16:50;34.28;;;22.95;;
23868;SDS011;12115;47.128;15.422;2022-10-16T02:19:18;26.42;;;19.63;;
23868;SDS011;12115;47.128;15.422;2022-10-16T02:21:49;31.77;;;20.80;;
23868;SDS011;12115;47.128;15.422;2022-10-16T02:24:25;31.77;;;20.80;;
23868;SDS011;12115;47.128;15.422;2022-10-16T02:29:28;29.88;;;20.48;;
23868;SDS011;12115;47.128;15.422;2022-10-16T02:31:58;32.60;;;23.63;;
23868;SDS011;12115;47.128;15.422;2022-10-16T02:34:29;29.55;;;22.45;;
23868;SDS011;12115;47.128;15.422;2022-10-16T02:36:58;23.95;;;19.48;;
23868;SDS011;12115;47.128;15.422;2022-10-16T02:39:27;38.90;;;24.77;;
23868;SDS011;12115;47.128;15.422;2022-10-16T02:41:55;31.65;;;24.10;;
23868;SDS011;12115;47.128;15.422;2022-10-16T02:44:22;22.08;;;18.33;;
23868;SDS011;12115;47.128;15.422;2022-10-16T02:46:49;26.60;;;20.67;;
23868;SDS011;12115;47.128;15.422;2022-10-16T02:49:16;22.88;;;18.90;;
23868;SDS011;12115;47.128;15.422;2022-10-16T02:51:44;23.85;;;18.60;;
23868;SDS011;12115;47.128;15.422;2022-10-16T02:54:11;23.73;;;17.92;;
23868;SDS011;12115;47.128;15.422;2022-10-16T02:56:39;28.05;;;20.17;;
23868;SDS011;12115;47.128;15.422;2022-10-16T02:59:06;23.90;;;17.00;;
23868;SDS011;12115;47.128;15.422;2022-10-16T03:01:33;24.80;;;18.98;;
23868;SDS011;12115;47.128;15.422;2022-10-16T03:04:00;21.27;;;17.77;;
23868;SDS011;12115;47.128;15.422;2022-10-16T03:06:27;23.17;;;17.65;;
23868;SDS011;12115;47.128;15.422;2022-10-16T03:08:53;28.38;;;20.52;;
23868;SDS011;12115;47.128;15.422;2022-10-16T03:11:20;26.67;;;19.10;;
23868;SDS011;12115;47.128;15.422;2022-10-16T03:13:47;23.40;;;18.77;;
23868;SDS011;12115;47.128;15.422;2022-10-16T03:16:14;25.13;;;17.38;;
23868;SDS011;12115;47.128;15.422;2022-10-16T03:18:41;29.83;;;21.17;;
23868;SDS011;12115;47.128;15.422;2022-10-16T03:21:08;22.20;;;17.67;;
23868;SDS011;12115;47.128;15.422;2022-10-16T03:23:35;25.17;;;16.90;;
23868;SDS011;12115;47.128;15.422;2022-10-16T03:26:02;24.73;;;17.08;;
23868;SDS011;12115;47.128;15.422;2022-10-16T03:28:29;21.92;;;17.52;;
23868;SDS011;12115;47.128;15.422;2022-10-16T03:30:56;26.42;;;17.98;;
23868;SDS011;12115;47.128;15.422;2022-10-16T03:33:23;24.95;;;18.98;;
23868;SDS011;12115;47.128;15.422;2022-10-16T03:35:51;25.75;;;19.63;;
23868;SDS011;12115;47.128;15.422;2022-10-16T03:38:19;22.08;;;17.50;;
23868;SDS011;12115;47.128;15.422;2022-10-16T03:40:47;26.27;;;16.27;;
23868;SDS011;12115;47.128;15.422;2022-10-16T03:43:14;27.20;;;20.40;;
23868;SDS011;12115;47.128;15.422;2022-10-16T03:45:41;29.52;;;20.13;;
23868;SDS011;12115;47.128;15.422;2022-10-16T03:48:08;27.85;;;20.80;;
23868;SDS011;12115;47.128;15.422;2022-10-16T03:50:35;24.65;;;16.15;;
23868;SDS011;12115;47.128;15.422;2022-10-16T03:53:03;20.60;;;16.40;;
23868;SDS011;12115;47.128;15.422;2022-10-16T03:55:30;26.88;;;18.67;;
23868;SDS011;12115;47.128;15.422;2022-10-16T03:57:57;24.90;;;19.55;;
23868;SDS011;12115;47.128;15.422;2022-10-16T04:00:24;28.05;;;20.55;;
23868;SDS011;12115;47.128;15.422;2022-10-16T04:02:51;25.73;;;20.08;;
23868;SDS011;12115;47.128;15.422;2022-10-16T04:05:18;19.33;;;15.82;;
23868;SDS011;12115;47.128;15.422;2022-10-16T04:07:45;29.80;;;16.52;;
23868;SDS011;12115;47.128;15.422;2022-10-16T04:10:12;23.10;;;17.70;;
23868;SDS011;12115;47.128;15.422;2022-10-16T04:12:39;31.58;;;21.00;;
23868;SDS011;12115;47.128;15.422;2022-10-16T04:15:06;32.50;;;20.73;;
23868;SDS011;12115;47.128;15.422;2022-10-16T04:17:33;34.13;;;23.80;;
23868;SDS011;12115;47.128;15.422;2022-10-16T04:20:00;29.67;;;21.60;;
23868;SDS011;12115;47.128;15.422;2022-10-16T04:22:27;34.58;;;22.83;;
23868;SDS011;12115;47.128;15.422;2022-10-16T04:24:54;21.90;;;17.88;;
23868;SDS011;12115;47.128;15.422;2022-10-16T04:27:21;22.17;;;18.30;;
23868;SDS011;12115;47.128;15.422;2022-10-16T04:29:49;30.08;;;19.05;;
23868;SDS011;12115;47.128;15.422;2022-10-16T04:32:21;25.67;;;18.83;;
23868;SDS011;12115;47.128;15.422;2022-10-16T04:34:48;25.38;;;19.42;;
23868;SDS011;12115;47.128;15.422;2022-10-16T04:37:15;30.98;;;20.70;;
23868;SDS011;12115;47.128;15.422;2022-10-16T04:39:42;27.42;;;21.67;;
23868;SDS011;12115;47.128;15.422;2022-10-16T04:42:09;20.02;;;17.13;;
23868;SDS011;12115;47.128;15.422;2022-10-16T04:44:37;25.30;;;18.45;;
23868;SDS011;12115;47.128;15.422;2022-10-16T04:47:04;36.85;;;22.42;;
23868;SDS011;12115;47.128;15.422;2022-10-16T04:49:31;25.88;;;19.98;;
23868;SDS011;12115;47.128;15.422;2022-10-16T04:51:58;22.15;;;18.83;;
23868;SDS011;12115;47.128;15.422;2022-10-16T04:54:25;23.70;;;16.77;;
23868;SDS011;12115;47.128;15.422;2022-10-16T04:56:52;28.77;;;18.35;;
23868;SDS011;12115;47.128;15.422;2022-10-16T04:59:19;22.88;;;17.38;;
23868;SDS011;12115;47.128;15.422;2022-10-16T05:01:46;19.85;;;16.60;;
23868;SDS011;12115;47.128;15.422;2022-10-16T05:04:14;20.83;;;16.00;;
23868;SDS011;12115;47.128;15.422;2022-10-16T05:06:41;29.60;;;18.52;;
23868;SDS011;12115;47.128;15.422;2022-10-16T05:09:09;24.88;;;17.23;;
23868;SDS011;12115;47.128;15.422;2022-10-16T05:11:36;21.65;;;17.35;;
23868;SDS011;12115;47.128;15.422;2022-10-16T05:14:03;27.55;;;17.48;;
23868;SDS011;12115;47.128;15.422;2022-10-16T05:16:31;24.50;;;17.65;;
23868;SDS011;12115;47.128;15.422;2022-10-16T05:18:58;24.00;;;17.60;;
23868;SDS011;12115;47.128;15.422;2022-10-16T05:21:45;24.77;;;18.60;;
23868;SDS011;12115;47.128;15.422;2022-10-16T05:24:12;21.60;;;15.60;;
23868;SDS011;12115;47.128;15.422;2022-10-16T05:26:39;20.90;;;15.48;;
23868;SDS011;12115;47.128;15.422;2022-10-16T05:29:06;19.83;;;15.02;;
23868;SDS011;12115;47.128;15.422;2022-10-16T05:31:33;19.40;;;15.85;;
23868;SDS011;12115;47.128;15.422;2022-10-16T05:34:00;25.48;;;18.00;;
23868;SDS011;12115;47.128;15.422;2022-10-16T05:36:28;29.33;;;18.73;;
23868;SDS011;12115;47.128;15.422;2022-10-16T05:38:55;28.92;;;19.13;;
23868;SDS011;12115;47.128;15.422;2022-10-16T05:41:22;32.80;;;19.77;;
23868;SDS011;12115;47.128;15.422;2022-10-16T05:43:52;22.50;;;18.10;;
23868;SDS011;12115;47.128;15.422;2022-10-16T05:46:19;28.00;;;19.30;;
23868;SDS011;12115;47.128;15.422;2022-10-16T05:48:47;22.23;;;16.10;;
23868;SDS011;12115;47.128;15.422;2022-10-16T05:51:14;20.02;;;15.18;;
23868;SDS011;12115;47.128;15.422;2022-10-16T05:53:41;27.73;;;17.10;;
23868;SDS011;12115;47.128;15.422;2022-10-16T05:56:10;20.40;;;16.58;;
23868;SDS011;12115;47.128;15.422;2022-10-16T05:58:39;24.63;;;16.67;;
23868;SDS011;12115;47.128;15.422;2022-10-16T06:01:12;29.85;;;18.63;;
23868;SDS011;12115;47.128;15.422;2022-10-16T06:03:43;27.95;;;20.30;;
23868;SDS011;12115;47.128;15.422;2022-10-16T06:06:15;27.23;;;19.77;;
23868;SDS011;12115;47.128;15.422;2022-10-16T06:08:47;33.83;;;19.42;;
23868;SDS011;12115;47.128;15.422;2022-10-16T06:11:16;30.05;;;21.10;;
23868;SDS011;12115;47.128;15.422;2022-10-16T06:13:44;27.63;;;19.95;;
23868;SDS011;12115;47.128;15.422;2022-10-16T06:16:12;21.98;;;15.40;;
23868;SDS011;12115;47.128;15.422;2022-10-16T06:18:39;18.33;;;15.55;;
23868;SDS011;12115;47.128;15.422;2022-10-16T06:21:11;20.52;;;16.77;;
23868;SDS011;12115;47.128;15.422;2022-10-16T06:23:42;23.10;;;17.10;;
23868;SDS011;12115;47.128;15.422;2022-10-16T06:26:10;23.20;;;17.05;;
23868;SDS011;12115;47.128;15.422;2022-10-16T06:28:39;23.35;;;15.88;;
23868;SDS011;12115;47.128;15.422;2022-10-16T06:31:07;21.13;;;16.20;;
23868;SDS011;12115;47.128;15.422;2022-10-16T06:33:35;22.63;;;17.65;;
23868;SDS011;12115;47.128;15.422;2022-10-16T06:36:04;31.90;;;24.02;;
23868;SDS011;12115;47.128;15.422;2022-10-16T06:38:34;31.63;;;24.93;;
23868;SDS011;12115;47.128;15.422;2022-10-16T06:41:01;30.85;;;20.90;;
23868;SDS011;12115;47.128;15.422;2022-10-16T06:43:29;24.67;;;18.15;;
23868;SDS011;12115;47.128;15.422;2022-10-16T06:45:59;32.20;;;19.77;;
23868;SDS011;12115;47.128;15.422;2022-10-16T06:48:28;24.92;;;19.17;;
23868;SDS011;12115;47.128;15.422;2022-10-16T06:50:56;29.67;;;21.00;;
23868;SDS011;12115;47.128;15.422;2022-10-16T06:53:29;28.88;;;20.65;;
23868;SDS011;12115;47.128;15.422;2022-10-16T06:56:08;27.55;;;19.58;;
23868;SDS011;12115;47.128;15.422;2022-10-16T06:58:41;23.05;;;19.95;;
23868;SDS011;12115;47.128;15.422;2022-10-16T07:01:09;23.25;;;18.30;;
23868;SDS011;12115;47.128;15.422;2022-10-16T07:03:38;26.95;;;20.42;;
23868;SDS011;12115;47.128;15.422;2022-10-16T07:06:07;24.02;;;18.88;;
23868;SDS011;12115;47.128;15.422;2022-10-16T07:08:36;21.10;;;18.40;;
23868;SDS011;12115;47.128;15.422;2022-10-16T07:11:06;23.83;;;17.40;;
23868;SDS011;12115;47.128;15.422;2022-10-16T07:13:39;22.40;;;16.92;;
23868;SDS011;12115;47.128;15.422;2022-10-16T07:16:07;19.73;;;14.68;;
23868;SDS011;12115;47.128;15.422;2022-10-16T07:18:39;20.58;;;15.25;;
23868;SDS011;12115;47.128;15.422;2022-10-16T07:21:10;17.88;;;14.35;;
23868;SDS011;12115;47.128;15.422;2022-10-16T07:23:46;17.92;;;14.77;;
23868;SDS011;12115;47.128;15.422;2022-10-16T07:26:17;22.25;;;15.10;;
23868;SDS011;12115;47.128;15.422;2022-10-16T07:28:44;19.13;;;14.57;;
23868;SDS011;12115;47.128;15.422;2022-10-16T07:31:12;18.77;;;15.60;;
23868;SDS011;12115;47.128;15.422;2022-10-16T07:33:40;16.75;;;14.82;;
23868;SDS011;12115;47.128;15.422;2022-10-16T07:36:11;16.53;;;13.13;;
23868;SDS011;12115;47.128;15.422;2022-10-16T07:38:41;14.88;;;13.38;;
23868;SDS011;12115;47.128;15.422;2022-10-16T07:41:10;14.68;;;13.27;;
23868;SDS011;12115;47.128;15.422;2022-10-16T07:43:39;16.65;;;12.40;;
23868;SDS011;12115;47.128;15.422;2022-10-16T07:46:06;17.98;;;12.70;;
23868;SDS011;12115;47.128;15.422;2022-10-16T07:48:34;14.40;;;12.90;;
23868;SDS011;12115;47.128;15.422;2022-10-16T07:51:02;13.93;;;12.35;;
23868;SDS011;12115;47.128;15.422;2022-10-16T07:53:31;13.15;;;11.80;;
23868;SDS011;12115;47.128;15.422;2022-10-16T07:56:08;13.13;;;11.73;;
23868;SDS011;12115;47.128;15.422;2022-10-16T07:58:36;12.98;;;11.65;;
23868;SDS011;12115;47.128;15.422;2022-10-16T08:01:06;13.47;;;12.17;;
23868;SDS011;12115;47.128;15.422;2022-10-16T08:03:35;15.32;;;11.02;;
23868;SDS011;12115;47.128;15.422;2022-10-16T08:06:02;13.73;;;12.00;;
23868;SDS011;12115;47.128;15.422;2022-10-16T08:08:31;12.00;;;10.65;;
23868;SDS011;12115;47.128;15.422;2022-10-16T08:10:58;14.90;;;11.43;;
23868;SDS011;12115;47.128;15.422;2022-10-16T08:13:25;15.77;;;10.50;;
23868;SDS011;12115;47.128;15.422;2022-10-16T08:15:53;11.35;;;10.35;;
23868;SDS011;12115;47.128;15.422;2022-10-16T08:18:20;14.38;;;10.38;;
23868;SDS011;12115;47.128;15.422;2022-10-16T08:20:54;13.63;;;11.13;;
23868;SDS011;12115;47.128;15.422;2022-10-16T08:23:25;16.48;;;10.80;;
23868;SDS011;12115;47.128;15.422;2022-10-16T08:25:53;17.92;;;10.77;;
23868;SDS011;12115;47.128;15.422;2022-10-16T08:28:21;14.50;;;11.25;;
23868;SDS011;12115;47.128;15.422;2022-10-16T08:30:49;13.35;;;11.63;;
23868;SDS011;12115;47.128;15.422;2022-10-16T08:33:16;13.00;;;10.90;;
23868;SDS011;12115;47.128;15.422;2022-10-16T08:35:50;11.95;;;10.85;;
23868;SDS011;12115;47.128;15.422;2022-10-16T08:38:20;12.18;;;10.95;;
23868;SDS011;12115;47.128;15.422;2022-10-16T08:40:47;12.38;;;11.23;;
23868;SDS011;12115;47.128;15.422;2022-10-16T08:51:07;13.45;;;10.77;;
23868;SDS011;12115;47.128;15.422;2022-10-16T08:53:41;12.52;;;10.70;;
23868;SDS011;12115;47.128;15.422;2022-10-16T08:56:13;12.13;;;10.80;;
23868;SDS011;12115;47.128;15.422;2022-10-16T08:58:40;11.15;;;10.13;;
23868;SDS011;12115;47.128;15.422;2022-10-16T09:01:14;12.02;;;10.75;;
23868;SDS011;12115;47.128;15.422;2022-10-16T09:06:43;12.50;;;11.20;;
23868;SDS011;12115;47.128;15.422;2022-10-16T09:09:21;12.45;;;10.90;;
23868;SDS011;12115;47.128;15.422;2022-10-16T09:12:01;12.57;;;11.48;;
23868;SDS011;12115;47.128;15.422;2022-10-16T09:22:46;14.15;;;12.45;;
23868;SDS011;12115;47.128;15.422;2022-10-16T09:25:14;17.92;;;12.68;;
23868;SDS011;12115;47.128;15.422;2022-10-16T09:27:44;12.93;;;11.65;;
23868;SDS011;12115;47.128;15.422;2022-10-16T09:32:43;14.02;;;12.73;;
23868;SDS011;12115;47.128;15.422;2022-10-16T09:35:13;15.73;;;14.15;;
23868;SDS011;12115;47.128;15.422;2022-10-16T09:37:44;14.18;;;12.77;;
23868;SDS011;12115;47.128;15.422;2022-10-16T09:40:35;16.38;;;14.38;;
23868;SDS011;12115;47.128;15.422;2022-10-16T09:45:58;20.60;;;15.07;;
23868;SDS011;12115;47.128;15.422;2022-10-16T09:51:05;16.27;;;14.77;;
23868;SDS011;12115;47.128;15.422;2022-10-16T09:53:54;15.65;;;14.02;;
23868;SDS011;12115;47.128;15.422;2022-10-16T09:56:42;16.23;;;14.50;;
23868;SDS011;12115;47.128;15.422;2022-10-16T09:59:13;14.80;;;13.35;;
23868;SDS011;12115;47.128;15.422;2022-10-16T10:01:48;16.30;;;13.90;;
23868;SDS011;12115;47.128;15.422;2022-10-16T10:04:16;17.10;;;14.23;;
23868;SDS011;12115;47.128;15.422;2022-10-16T10:06:48;16.65;;;15.05;;
23868;SDS011;12115;47.128;15.422;2022-10-16T10:09:34;16.33;;;14.73;;
23868;SDS011;12115;47.128;15.422;2022-10-16T10:12:05;15.60;;;14.02;;
23868;SDS011;12115;47.128;15.422;2022-10-16T10:14:46;14.68;;;13.10;;
23868;SDS011;12115;47.128;15.422;2022-10-16T10:27:39;15.23;;;13.05;;
23868;SDS011;12115;47.128;15.422;2022-10-16T10:30:18;15.35;;;13.20;;
23868;SDS011;12115;47.128;15.422;2022-10-16T10:47:01;14.82;;;13.30;;
23868;SDS011;12115;47.128;15.422;2022-10-16T10:57:54;14.18;;;12.82;;
23868;SDS011;12115;47.128;15.422;2022-10-16T11:00:51;14.35;;;12.95;;
23868;SDS011;12115;47.128;15.422;2022-10-16T11:09:43;14.63;;;12.50;;
23868;SDS011;12115;47.128;15.422;2022-10-16T11:12:47;14.90;;;13.25;;
23868;SDS011;12115;47.128;15.422;2022-10-16T11:15:17;18.27;;;13.48;;
23868;SDS011;12115;47.128;15.422;2022-10-16T11:20:32;15.25;;;13.73;;
23868;SDS011;12115;47.128;15.422;2022-10-16T11:26:02;16.88;;;14.20;;
23868;SDS011;12115;47.128;15.422;2022-10-16T11:28:37;13.35;;;11.90;;
23868;SDS011;12115;47.128;15.422;2022-10-16T11:33:41;18.20;;;13.23;;
23868;SDS011;12115;47.128;15.422;2022-10-16T11:41:31;15.25;;;13.73;;
23868;SDS011;12115;47.128;15.422;2022-10-16T11:53:38;15.70;;;14.07;;
23868;SDS011;12115;47.128;15.422;2022-10-16T11:56:13;15.52;;;13.93;;
23868;SDS011;12115;47.128;15.422;2022-10-16T12:01:40;15.70;;;13.30;;
23868;SDS011;12115;47.128;15.422;2022-10-16T12:04:18;15.50;;;13.90;;
23868;SDS011;12115;47.128;15.422;2022-10-16T12:09:27;16.20;;;14.50;;
23868;SDS011;12115;47.128;15.422;2022-10-16T12:11:56;15.93;;;14.02;;
23868;SDS011;12115;47.128;15.422;2022-10-16T12:20:32;15.20;;;13.43;;
23868;SDS011;12115;47.128;15.422;2022-10-16T12:22:49;16.13;;;14.52;;
23868;SDS011;12115;47.128;15.422;2022-10-16T12:25:21;15.90;;;14.30;;
23868;SDS011;12115;47.128;15.422;2022-10-16T12:28:07;15.02;;;13.43;;
23868;SDS011;12115;47.128;15.422;2022-10-16T12:30:56;14.50;;;13.07;;
23868;SDS011;12115;47.128;15.422;2022-10-16T12:33:35;15.27;;;13.68;;
23868;SDS011;12115;47.128;15.422;2022-10-16T12:36:13;15.52;;;13.82;;
23868;SDS011;12115;47.128;15.422;2022-10-16T12:38:53;12.98;;;11.65;;
23868;SDS011;12115;47.128;15.422;2022-10-16T12:41:30;15.68;;;13.13;;
23868;SDS011;12115;47.128;15.422;2022-10-16T12:44:02;17.73;;;13.00;;
23868;SDS011;12115;47.128;15.422;2022-10-16T12:49:48;14.45;;;12.80;;
23868;SDS011;12115;47.128;15.422;2022-10-16T12:51:56;15.00;;;12.70;;
23868;SDS011;12115;47.128;15.422;2022-10-16T13:18:44;13.73;;;12.32;;
23868;SDS011;12115;47.128;15.422;2022-10-16T13:24:00;14.23;;;12.73;;
23868;SDS011;12115;47.128;15.422;2022-10-16T13:29:44;14.30;;;12.73;;
23868;SDS011;12115;47.128;15.422;2022-10-16T13:32:18;13.95;;;11.80;;
23868;SDS011;12115;47.128;15.422;2022-10-16T13:34:47;19.38;;;13.52;;
23868;SDS011;12115;47.128;15.422;2022-10-16T13:37:18;15.10;;;13.65;;
23868;SDS011;12115;47.128;15.422;2022-10-16T13:39:47;15.38;;;11.75;;
23868;SDS011;12115;47.128;15.422;2022-10-16T13:42:22;14.73;;;12.50;;
23868;SDS011;12115;47.128;15.422;2022-10-16T13:44:54;13.52;;;12.05;;
23868;SDS011;12115;47.128;15.422;2022-10-16T13:47:23;17.30;;;13.43;;
23868;SDS011;12115;47.128;15.422;2022-10-16T13:49:59;16.15;;;12.80;;
23868;SDS011;12115;47.128;15.422;2022-10-16T13:52:27;15.07;;;12.23;;
23868;SDS011;12115;47.128;15.422;2022-10-16T13:54:55;14.05;;;12.65;;
23868;SDS011;12115;47.128;15.422;2022-10-16T13:57:27;20.05;;;12.50;;
23868;SDS011;12115;47.128;15.422;2022-10-16T13:59:54;15.13;;;11.70;;
23868;SDS011;12115;47.128;15.422;2022-10-16T14:02:29;14.20;;;12.65;;
23868;SDS011;12115;47.128;15.422;2022-10-16T14:05:01;14.77;;;12.50;;
23868;SDS011;12115;47.128;15.422;2022-10-16T14:07:31;13.68;;;12.25;;
23868;SDS011;12115;47.128;15.422;2022-10-16T14:10:01;13.93;;;12.35;;
23868;SDS011;12115;47.128;15.422;2022-10-16T14:12:31;19.00;;;13.02;;
23868;SDS011;12115;47.128;15.422;2022-10-16T14:14:59;14.55;;;13.05;;
23868;SDS011;12115;47.128;15.422;2022-10-16T14:19:57;14.32;;;12.82;;
23868;SDS011;12115;47.128;15.422;2022-10-16T14:22:35;14.88;;;13.27;;
23868;SDS011;12115;47.128;15.422;2022-10-16T14:27:59;15.80;;;13.32;;
23868;SDS011;12115;47.128;15.422;2022-10-16T14:30:36;17.98;;;15.00;;
23868;SDS011;12115;47.128;15.422;2022-10-16T14:33:04;21.55;;;13.98;;
23868;SDS011;12115;47.128;15.422;2022-10-16T14:35:34;21.90;;;19.60;;
23868;SDS011;12115;47.128;15.422;2022-10-16T14:38:03;20.17;;;18.20;;
23868;SDS011;12115;47.128;15.422;2022-10-16T14:40:33;21.60;;;19.50;;
23868;SDS011;12115;47.128;15.422;2022-10-16T14:43:02;21.83;;;19.60;;
23868;SDS011;12115;47.128;15.422;2022-10-16T14:45:31;23.05;;;20.75;;
23868;SDS011;12115;47.128;15.422;2022-10-16T14:48:02;17.38;;;15.15;;
23868;SDS011;12115;47.128;15.422;2022-10-16T14:50:45;18.20;;;15.68;;
23868;SDS011;12115;47.128;15.422;2022-10-16T14:53:12;20.58;;;18.42;;
23868;SDS011;12115;47.128;15.422;2022-10-16T14:55:39;16.35;;;14.73;;
23868;SDS011;12115;47.128;15.422;2022-10-16T14:58:15;15.68;;;14.07;;
23868;SDS011;12115;47.128;15.422;2022-10-16T15:00:44;15.70;;;14.05;;
23868;SDS011;12115;47.128;15.422;2022-10-16T15:03:11;16.58;;;14.10;;
23868;SDS011;12115;47.128;15.422;2022-10-16T15:05:38;19.10;;;12.40;;
23868;SDS011;12115;47.128;15.422;2022-10-16T15:08:05;16.80;;;13.15;;
23868;SDS011;12115;47.128;15.422;2022-10-16T15:10:33;18.67;;;13.82;;
23868;SDS011;12115;47.128;15.422;2022-10-16T15:13:05;15.70;;;13.63;;
23868;SDS011;12115;47.128;15.422;2022-10-16T15:15:36;16.10;;;13.45;;
23868;SDS011;12115;47.128;15.422;2022-10-16T15:18:06;14.77;;;13.07;;
23868;SDS011;12115;47.128;15.422;2022-10-16T15:20:35;14.93;;;13.27;;
23868;SDS011;12115;47.128;15.422;2022-10-16T15:23:04;18.13;;;14.45;;
23868;SDS011;12115;47.128;15.422;2022-10-16T15:28:16;18.48;;;13.63;;
23868;SDS011;12115;47.128;15.422;2022-10-16T15:30:45;20.55;;;12.70;;
23868;SDS011;12115;47.128;15.422;2022-10-16T15:33:13;17.42;;;13.65;;
23868;SDS011;12115;47.128;15.422;2022-10-16T15:35:42;14.88;;;13.30;;
23868;SDS011;12115;47.128;15.422;2022-10-16T15:38:12;14.65;;;13.05;;
23868;SDS011;12115;47.128;15.422;2022-10-16T15:40:40;21.02;;;13.25;;
23868;SDS011;12115;47.128;15.422;2022-10-16T15:43:07;13.77;;;12.38;;
23868;SDS011;12115;47.128;15.422;2022-10-16T15:45:35;16.20;;;14.50;;
23868;SDS011;12115;47.128;15.422;2022-10-16T15:48:02;28.30;;;14.32;;
23868;SDS011;12115;47.128;15.422;2022-10-16T15:50:30;24.08;;;14.48;;
23868;SDS011;12115;47.128;15.422;2022-10-16T15:52:57;30.13;;;13.70;;
23868;SDS011;12115;47.128;15.422;2022-10-16T15:55:24;19.02;;;14.57;;
23868;SDS011;12115;47.128;15.422;2022-10-16T15:57:51;17.38;;;15.02;;
23868;SDS011;12115;47.128;15.422;2022-10-16T16:00:19;19.55;;;14.77;;
23868;SDS011;12115;47.128;15.422;2022-10-16T16:02:52;15.73;;;13.60;;
23868;SDS011;12115;47.128;15.422;2022-10-16T16:05:20;21.13;;;14.13;;
23868;SDS011;12115;47.128;15.422;2022-10-16T16:07:48;20.85;;;14.35;;
23868;SDS011;12115;47.128;15.422;2022-10-16T16:10:17;16.33;;;13.65;;
23868;SDS011;12115;47.128;15.422;2022-10-16T16:12:45;18.88;;;13.77;;
23868;SDS011;12115;47.128;15.422;2022-10-16T16:15:21;23.80;;;14.10;;
23868;SDS011;12115;47.128;15.422;2022-10-16T16:17:48;21.75;;;14.95;;
23868;SDS011;12115;47.128;15.422;2022-10-16T16:20:16;22.65;;;14.45;;
23868;SDS011;12115;47.128;15.422;2022-10-16T16:22:43;24.23;;;15.23;;
23868;SDS011;12115;47.128;15.422;2022-10-16T16:25:10;21.63;;;14.90;;
23868;SDS011;12115;47.128;15.422;2022-10-16T16:27:37;20.23;;;15.43;;
23868;SDS011;12115;47.128;15.422;2022-10-16T16:30:09;25.27;;;15.60;;
23868;SDS011;12115;47.128;15.422;2022-10-16T16:32:44;25.13;;;16.23;;
23868;SDS011;12115;47.128;15.422;2022-10-16T16:35:11;27.15;;;19.23;;
23868;SDS011;12115;47.128;15.422;2022-10-16T16:37:38;34.58;;;22.75;;
23868;SDS011;12115;47.128;15.422;2022-10-16T16:40:05;32.85;;;22.23;;
23868;SDS011;12115;47.128;15.422;2022-10-16T16:42:33;23.02;;;17.90;;
23868;SDS011;12115;47.128;15.422;2022-10-16T16:45:00;26.23;;;17.70;;
23868;SDS011;12115;47.128;15.422;2022-10-16T16:47:27;25.00;;;17.42;;
23868;SDS011;12115;47.128;15.422;2022-10-16T16:49:55;24.85;;;17.63;;
23868;SDS011;12115;47.128;15.422;2022-10-16T16:52:22;25.35;;;17.05;;
23868;SDS011;12115;47.128;15.422;2022-10-16T16:54:49;23.30;;;17.85;;
23868;SDS011;12115;47.128;15.422;2022-10-16T16:57:20;24.45;;;17.05;;
23868;SDS011;12115;47.128;15.422;2022-10-16T16:59:49;26.45;;;18.08;;
23868;SDS011;12115;47.128;15.422;2022-10-16T17:02:18;24.10;;;17.60;;
23868;SDS011;12115;47.128;15.422;2022-10-16T17:04:46;27.55;;;19.17;;
23868;SDS011;12115;47.128;15.422;2022-10-16T17:07:14;33.63;;;21.80;;